Aérodrome :
LOGIN :

S'inscrire | Disclaimer

   EN    FR    IT 

 










Légende :    VFR   VFR Marginal   IFR   IFR Intensif   IFR Très Intensif
Visi : 
Plafond : 
>= 8 km
>= 3000ft
5 à 8 km
1000 à 3000 ft
1500m à 5 km
500 à 1000 ft
800 à 1500m
200 à 500 ft
< 800m
< 200 ft
Symboles :   Orages  Brouillard  Fortes neiges  Fortes précipitations  Vent > 20 kt
SIGMETs :   Divers  Orages  Givrage  Turbulence  Onde Orograph.  Cendres Volcan.







- Altitude de l'aérodrome : 138 ft
- Code IATA : RLG


ETNL - Rostock Laage

DERNIER METAR :
  • 171420Z 27002KT 9999 FEW048 24/10 Q1021 BLU+BLU+

METARs EXPIRÉS :
  • 171337Z 04004KT 9999 SCT048 24/11 Q1021 BLU+BLU+
  • 171320Z 16005KT 9999 SCT048 23/11 Q1021 BLU+BLU+
  • 171220Z 18003KT 9999 SCT054 23/11 Q1022 BLU+BLU+ TEMPO BLU

TAF TAF ETNL
Valide du 17 à 14h jusqu'au 17 à 23h UTC


171300Z 1714/1723 VRB03KT 9999 NSW SCT050 BY ETGL
Pas de NOTAMs connus pour ce terrain.



MET'MAP, la Météo Aéronautique d'un coup d'oeil ! - Copyright ORBIFLY Décembre 2007 - Disclaimer

ORBIFLY MET'MAP TEAM :

Programmation & Développement : Alexandra Zaïnal
Conception & Développement : Baudouin d'Aumeries
Co-Programmation & Développement : Marc-Olivier Méhu
Soutien technique & logistique : Manuel Goepfert

Contact : metmap@orbifly.com




SOURCES & CREDITS :

   NOAA